Terminal Aerodrome Forecast
Issued by NWS

Home | Current Version | Previous Version | Text Only | Print | Product List | Glossary On
Versions: 1 2 3 4 5 6 7 8 9 10 11 12 13 14
000
FTUS46 KSEW 210500
TAFBFI
TAF
KBFI 210520Z 2106/2206 VRB03KT P6SM BKN150
     FM211000 VRB03KT P6SM SCT080 BKN120
     FM211800 29006KT P6SM BKN060
     FM220100 32006KT P6SM -SHRA BKN035 OVC050=

USA.gov is the U.S. government's official web portal to all federal, state and local government web resources and services.